| time (UTC) | temp F | wind direction | speed MPH | gust MPH | rain 1hr in | rain 24hr in | rain mn in | humidity % | barometer mb |
| 20260508210005 | 50 | 146 | 1.0 | 5.0 | 0.00 | 0.05 | 0.05 | 86 | 1017.0 |
| 20260508205005 | 51 | 147 | 2.0 | 3.0 | 0.00 | 0.05 | 0.05 | 85 | 1017.1 |
| 20260508204005 | 51 | 146 | 1.0 | 3.0 | 0.00 | 0.05 | 0.05 | 84 | 1017.0 |
| 20260508203004 | 51 | 148 | 1.0 | 3.0 | 0.00 | 0.05 | 0.05 | 83 | 1016.9 |
| 20260508202005 | 52 | 148 | 1.0 | 3.0 | 0.00 | 0.05 | 0.05 | 82 | 1016.8 |
| 20260508201005 | 52 | 148 | 1.0 | 3.0 | 0.00 | 0.05 | 0.05 | 81 | 1016.7 |
| 20260508200005 | 53 | 149 | 1.0 | 3.0 | 0.00 | 0.05 | 0.05 | 79 | 1016.6 |
| 20260508195005 | 54 | 150 | 1.0 | 3.0 | 0.00 | 0.05 | 0.05 | 78 | 1016.5 |
| 20260508194005 | 54 | 149 | 1.0 | 3.0 | 0.00 | 0.05 | 0.05 | 77 | 1016.4 |
| 20260508193005 | 55 | 137 | 3.0 | 7.0 | 0.00 | 0.05 | 0.05 | 76 | 1016.2 |
| 20260508192007 | 55 | 138 | 3.0 | 7.0 | 0.00 | 0.05 | 0.05 | 75 | 1016.2 |
| 20260508191005 | 55 | 143 | 3.0 | 7.0 | 0.00 | 0.05 | 0.05 | 74 | 1016.3 |
| 20260508190005 | 56 | 143 | 3.0 | 12.0 | 0.00 | 0.05 | 0.05 | 73 | 1016.2 |
| 20260508185005 | 56 | 132 | 3.0 | 9.0 | 0.00 | 0.05 | 0.05 | 72 | 1016.1 |
| 20260508184005 | 57 | 131 | 5.0 | 9.0 | 0.00 | 0.05 | 0.05 | 71 | 1016.0 |
| 20260508182005 | 58 | 131 | 6.0 | 12.0 | 0.00 | 0.05 | 0.05 | 69 | 1015.8 |
| 20260508181005 | 58 | 129 | 7.0 | 10.0 | 0.00 | 0.05 | 0.05 | 68 | 1015.7 |
| 20260508180005 | 58 | 133 | 8.0 | 14.0 | 0.00 | 0.05 | 0.05 | 67 | 1015.7 |
| 20260508175005 | 59 | 137 | 7.0 | 15.0 | 0.00 | 0.05 | 0.05 | 67 | 1015.6 |
| 20260508174005 | 59 | 135 | 9.0 | 15.0 | 0.00 | 0.05 | 0.05 | 66 | 1015.7 |
| 20260508172005 | 61 | 132 | 7.0 | 15.0 | 0.00 | 0.05 | 0.05 | 64 | 1015.7 |
| 20260508171004 | 61 | 127 | 9.0 | 15.0 | 0.00 | 0.05 | 0.05 | 63 | 1015.8 |
| 20260508165005 | 62 | 136 | 8.0 | 12.0 | 0.00 | 0.05 | 0.05 | 63 | 1015.7 |
| 20260508164005 | 62 | 140 | 7.0 | 16.0 | 0.00 | 0.05 | 0.05 | 65 | 1015.7 |
| 20260508163005 | 61 | 136 | 7.0 | 16.0 | 0.00 | 0.05 | 0.05 | 68 | 1015.7 |
| 20260508162006 | 61 | 132 | 9.0 | 15.0 | 0.00 | 0.05 | 0.05 | 68 | 1015.6 |
| 20260508161005 | 61 | 130 | 12.0 | 20.0 | 0.00 | 0.05 | 0.05 | 67 | 1015.6 |
| 20260508160005 | 62 | 134 | 10.0 | 15.0 | 0.00 | 0.05 | 0.05 | 67 | 1015.7 |
| 20260508155005 | 63 | 137 | 9.0 | 15.0 | 0.00 | 0.05 | 0.05 | 68 | 1015.7 |
| 20260508153005 | 63 | 133 | 5.0 | 16.0 | 0.00 | 0.05 | 0.05 | 70 | 1015.8 |
| 20260508152005 | 63 | 128 | 9.0 | 15.0 | 0.00 | 0.05 | 0.05 | 70 | 1015.9 |
| 20260508151004 | 63 | 133 | 10.0 | 18.0 | 0.00 | 0.05 | 0.05 | 70 | 1015.8 |
| 20260508150006 | 63 | 129 | 12.0 | 17.0 | 0.00 | 0.05 | 0.05 | 71 | 1015.8 |
| 20260508145005 | 62 | 144 | 9.0 | 17.0 | 0.00 | 0.05 | 0.05 | 73 | 1015.8 |
| 20260508144005 | 63 | 133 | 9.0 | 18.0 | 0.00 | 0.05 | 0.05 | 72 | 1015.8 |
| 20260508143005 | 63 | 130 | 9.0 | 14.0 | 0.00 | 0.05 | 0.05 | 72 | 1015.8 |
| 20260508142005 | 63 | 140 | 10.0 | 14.0 | 0.00 | 0.05 | 0.05 | 73 | 1015.8 |
| 20260508141004 | 63 | 136 | 10.0 | 17.0 | 0.00 | 0.05 | 0.05 | 74 | 1015.8 |
| 20260508140005 | 63 | 130 | 10.0 | 17.0 | 0.00 | 0.05 | 0.05 | 73 | 1015.9 |
| 20260508135004 | 64 | 126 | 10.0 | 15.0 | 0.00 | 0.05 | 0.05 | 72 | 1015.8 |
| 20260508134005 | 64 | 139 | 8.0 | 15.0 | 0.00 | 0.05 | 0.05 | 72 | 1015.7 |
| 20260508133005 | 64 | 131 | 11.0 | 16.0 | 0.00 | 0.05 | 0.05 | 74 | 1015.9 |
| 20260508132005 | 63 | 137 | 9.0 | 16.0 | 0.00 | 0.05 | 0.05 | 73 | 1015.9 |
| 20260508131005 | 64 | 130 | 11.0 | 16.0 | 0.00 | 0.05 | 0.05 | 72 | 1015.8 |
| 20260508130005 | 64 | 132 | 9.0 | 12.0 | 0.00 | 0.05 | 0.05 | 73 | 1015.8 |
| 20260508125004 | 63 | 134 | 10.0 | 16.0 | 0.00 | 0.05 | 0.05 | 74 | 1015.9 |
| 20260508123004 | 63 | 131 | 10.0 | 16.0 | 0.00 | 0.05 | 0.05 | 72 | 1015.8 |
| 20260508122005 | 63 | 130 | 11.0 | 16.0 | 0.00 | 0.05 | 0.05 | 73 | 1015.8 |
| 20260508121004 | 63 | 139 | 10.0 | 16.0 | 0.00 | 0.05 | 0.05 | 75 | 1015.8 |
| 20260508120005 | 62 | 128 | 9.0 | 17.0 | 0.00 | 0.05 | 0.05 | 76 | 1015.8 |
| 20260508115004 | 62 | 143 | 6.0 | 20.0 | 0.00 | 0.05 | 0.05 | 74 | 1015.9 |
| 20260508114006 | 62 | 129 | 11.0 | 20.0 | 0.00 | 0.05 | 0.05 | 75 | 1015.8 |
| 20260508113005 | 63 | 131 | 10.0 | 16.0 | 0.00 | 0.05 | 0.05 | 76 | 1015.9 |
| 20260508112004 | 63 | 135 | 8.0 | 14.0 | 0.00 | 0.05 | 0.05 | 76 | 1015.9 |
| 20260508111004 | 62 | 132 | 10.0 | 16.0 | 0.00 | 0.05 | 0.05 | 77 | 1015.9 |
| 20260508110004 | 62 | 130 | 9.0 | 16.0 | 0.00 | 0.05 | 0.05 | 78 | 1015.7 |
| 20260508104004 | 60 | 132 | 10.0 | 17.0 | 0.00 | 0.05 | 0.05 | 83 | 1015.7 |
| 20260508103004 | 60 | 133 | 10.0 | 17.0 | 0.00 | 0.05 | 0.05 | 81 | 1015.6 |
| 20260508102006 | 60 | 130 | 9.0 | 14.0 | 0.00 | 0.05 | 0.05 | 83 | 1015.6 |
| 20260508101004 | 60 | 126 | 12.0 | 15.0 | 0.00 | 0.05 | 0.05 | 83 | 1015.7 |
| 20260508094004 | 57 | 133 | 7.0 | 14.0 | 0.00 | 0.05 | 0.05 | 91 | 1015.5 |
| 20260508091004 | 55 | 131 | 7.0 | 12.0 | 0.01 | 0.05 | 0.05 | 93 | 1015.3 |
| 20260508090004 | 54 | 138 | 7.0 | 12.0 | 0.01 | 0.05 | 0.05 | 93 | 1015.3 |
| 20260508085004 | 54 | 130 | 8.0 | 12.0 | 0.01 | 0.05 | 0.05 | 93 | 1015.3 |
| 20260508084004 | 54 | 130 | 9.0 | 15.0 | 0.02 | 0.05 | 0.05 | 93 | 1015.4 |
| 20260508082004 | 53 | 130 | 10.0 | 14.0 | 0.02 | 0.05 | 0.05 | 94 | 1015.3 |
| 20260508081004 | 53 | 132 | 9.0 | 12.0 | 0.01 | 0.04 | 0.04 | 94 | 1015.4 |
| 20260508080004 | 53 | 131 | 9.0 | 12.0 | 0.02 | 0.04 | 0.04 | 94 | 1015.4 |
| 20260508075004 | 53 | 134 | 9.0 | 12.0 | 0.03 | 0.04 | 0.04 | 93 | 1015.3 |
| 20260508074004 | 53 | 133 | 8.0 | 15.0 | 0.02 | 0.03 | 0.03 | 93 | 1015.2 |
| 20260508073004 | 53 | 134 | 10.0 | 15.0 | 0.02 | 0.03 | 0.03 | 93 | 1015.2 |
| 20260508072007 | 53 | 131 | 9.0 | 12.0 | 0.03 | 0.03 | 0.03 | 93 | 1015.1 |
| 20260508071006 | 53 | 131 | 5.0 | 10.0 | 0.03 | 0.03 | 0.03 | 92 | 1015.2 |
| 20260508070006 | 53 | 125 | 7.0 | 10.0 | 0.02 | 0.02 | 0.02 | 92 | 1015.0 |
| 20260508065006 | 53 | 127 | 7.0 | 10.0 | 0.01 | 0.01 | 0.01 | 91 | 1014.9 |
| 20260508064006 | 53 | 130 | 4.0 | 9.0 | 0.01 | 0.01 | 0.01 | 90 | 1014.9 |
| 20260508063005 | 53 | 136 | 3.0 | 12.0 | 0.01 | 0.01 | 0.01 | 89 | 1014.9 |
| 20260508062006 | 54 | 133 | 10.0 | 14.0 | 0.00 | 0.00 | 0.00 | 87 | 1014.8 |
| 20260508061006 | 54 | 127 | 9.0 | 12.0 | 0.00 | 0.00 | 0.00 | 86 | 1014.8 |
| 20260508060006 | 54 | 133 | 6.0 | 14.0 | 0.00 | 0.00 | 0.00 | 86 | 1014.9 |
| 20260508055006 | 54 | 127 | 9.0 | 14.0 | 0.00 | 0.00 | 0.00 | 86 | 1014.8 |
| 20260508054006 | 54 | 133 | 9.0 | 15.0 | 0.00 | 0.00 | 0.00 | 86 | 1014.6 |
| 20260508053006 | 53 | 129 | 6.0 | 12.0 | 0.00 | 0.00 | 0.00 | 87 | 1014.6 |
| 20260508052006 | 53 | 128 | 7.0 | 12.0 | 0.00 | 0.00 | 0.00 | 88 | 1014.6 |
| 20260508051007 | 53 | 129 | 7.0 | 12.0 | 0.00 | 0.00 | 0.00 | 88 | 1014.6 |
| 20260508050006 | 53 | 125 | 6.0 | 12.0 | 0.00 | 0.00 | 0.00 | 88 | 1014.5 |
| 20260508045006 | 53 | 138 | 6.0 | 14.0 | 0.00 | 0.00 | 0.00 | 88 | 1014.5 |
| 20260508044006 | 53 | 131 | 7.0 | 14.0 | 0.00 | 0.00 | 0.00 | 88 | 1014.5 |
| 20260508043006 | 53 | 139 | 7.0 | 12.0 | 0.00 | 0.00 | 0.00 | 88 | 1014.5 |
| 20260508042005 | 53 | 130 | 7.0 | 12.0 | 0.00 | 0.00 | 0.00 | 88 | 1014.5 |
| 20260508040006 | 53 | 128 | 8.0 | 14.0 | 0.00 | 0.00 | 0.00 | 89 | 1014.5 |
| 20260508034006 | 53 | 129 | 7.0 | 12.0 | 0.00 | 0.00 | 0.00 | 89 | 1014.4 |
| 20260508033005 | 53 | 130 | 8.0 | 12.0 | 0.00 | 0.00 | 0.00 | 89 | 1014.4 |
| 20260508032006 | 53 | 134 | 6.0 | 12.0 | 0.00 | 0.00 | 0.00 | 89 | 1014.5 |
| 20260508031006 | 53 | 130 | 8.0 | 12.0 | 0.00 | 0.00 | 0.00 | 90 | 1014.6 |
| 20260508030005 | 53 | 135 | 6.0 | 9.0 | 0.00 | 0.00 | 0.00 | 90 | 1014.6 |
| 20260508024006 | 53 | 129 | 5.0 | 10.0 | 0.00 | 0.00 | 0.00 | 90 | 1014.7 |
| 20260508022006 | 53 | 135 | 3.0 | 8.0 | 0.00 | 0.00 | 0.00 | 90 | 1014.7 |
| 20260508021006 | 53 | 125 | 5.0 | 10.0 | 0.00 | 0.00 | 0.00 | 89 | 1014.6 |
| 20260508020006 | 53 | 141 | 5.0 | 9.0 | 0.00 | 0.00 | 0.00 | 89 | 1014.6 |
| 20260508015005 | 53 | 131 | 5.0 | 10.0 | 0.00 | 0.00 | 0.00 | 89 | 1014.6 |
| 20260508014006 | 53 | 139 | 6.0 | 12.0 | 0.00 | 0.00 | 0.00 | 89 | 1014.6 |
| 20260508012007 | 53 | 131 | 9.0 | 12.0 | 0.00 | 0.00 | 0.00 | 88 | 1014.8 |
| 20260508011006 | 53 | 138 | 6.0 | 12.0 | 0.00 | 0.00 | 0.00 | 87 | 1014.9 |
| 20260508010005 | 53 | 132 | 8.0 | 12.0 | 0.00 | 0.00 | 0.00 | 86 | 1015.0 |
| 20260508005006 | 52 | 128 | 8.0 | 15.0 | 0.00 | 0.00 | 0.00 | 85 | 1015.0 |
| 20260508004005 | 52 | 131 | 8.0 | 15.0 | 0.00 | 0.00 | 0.00 | 84 | 1014.9 |
| 20260508003006 | 52 | 130 | 7.0 | 12.0 | 0.00 | 0.00 | 0.00 | 86 | 1015.0 |
| 20260508002006 | 52 | 131 | 7.0 | 12.0 | 0.00 | 0.00 | 0.00 | 86 | 1015.0 |
| 20260508001006 | 52 | 134 | 7.0 | 12.0 | 0.00 | 0.00 | 0.00 | 86 | 1015.0 |
| 20260508000005 | 52 | 132 | 7.0 | 15.0 | 0.00 | 0.00 | 0.00 | 86 | 1015.0 |
| 20260507235006 | 52 | 129 | 9.0 | 12.0 | 0.00 | 0.00 | 0.00 | 86 | 1015.0 |
| 20260507234005 | 52 | 136 | 9.0 | 14.0 | 0.00 | 0.00 | 0.00 | 87 | 1015.2 |
| 20260507233005 | 52 | 131 | 10.0 | 15.0 | 0.00 | 0.00 | 0.00 | 87 | 1015.2 |
| 20260507232006 | 51 | 129 | 9.0 | 12.0 | 0.00 | 0.00 | 0.00 | 87 | 1015.3 |
| 20260507231006 | 51 | 130 | 9.0 | 12.0 | 0.00 | 0.00 | 0.00 | 87 | 1015.4 |
| 20260507230005 | 51 | 125 | 7.0 | 12.0 | 0.00 | 0.00 | 0.00 | 87 | 1015.4 |
| 20260507225005 | 50 | 134 | 5.0 | 10.0 | 0.00 | 0.00 | 0.00 | 87 | 1015.4 |
| 20260507224005 | 51 | 145 | 5.0 | 12.0 | 0.00 | 0.00 | 0.00 | 86 | 1015.5 |
| 20260507223005 | 50 | 132 | 6.0 | 12.0 | 0.00 | 0.00 | 0.00 | 87 | 1015.6 |
| 20260507222005 | 50 | 131 | 6.0 | 12.0 | 0.00 | 0.00 | 0.00 | 86 | 1015.6 |
| 20260507221005 | 50 | 131 | 6.0 | 12.0 | 0.00 | 0.00 | 0.00 | 87 | 1015.6 |
| 20260507220005 | 50 | 136 | 5.0 | 8.0 | 0.00 | 0.00 | 0.00 | 86 | 1015.6 |
| 20260507215005 | 51 | 132 | 6.0 | 12.0 | 0.00 | 0.00 | 0.00 | 86 | 1015.6 |
| 20260507214005 | 51 | 130 | 7.0 | 12.0 | 0.00 | 0.00 | 0.00 | 85 | 1015.7 |
| 20260507212005 | 51 | 137 | 5.0 | 10.0 | 0.00 | 0.00 | 0.00 | 86 | 1015.7 |